»·PEaware :: DAL236 KIAD-KMIA

DAL236 :: KIAD-KMIA

FLIGHT INFORMATION

Flight Status: Arrived
Operator:
Delta Air Lines
More flights by this operator :: More flights under this callsign
Pilot: Kenny J. (11300)
Aircraft: AIRBUS A320
(A320)
More flights by this aircraft type
Origin: KIAD Washington Dulles Intl
United States
Destination: KMIA Miami Intl
United States
More flights between these airports :: More routes between these airports
Route: JDUBB1 GSO DCT SAV J103 OMN ANNEY3
File this flight plan on PilotEdge
Remarks:
Altitude:
(Current/Filed)
36,000ft
Speed:
(Current/Filed)
310kts
Departed: 30-Jan-17 01:50 PM
Arrived: 30-Jan-17 04:05 PM
Distance/Time
Traveled:
802nm/2:15
Distance/Time
To Go:
Arrived

Flight Plot

Page will automatically refresh every two minutes.

Flight plan parsing failed; only flown route is shown


Map Options




Map Legend


Flown Route
Filed Route
Departure Airport
Arrival Airport
Navaid (VOR, NDB)
Fix

Horizontal Profiles

Position Reports

Time Latitude Longitude Heading Altitude Ground
Speed
30-Jan-17 13:21 38.949313 -77.454847 180 326ft 0kts
30-Jan-17 13:22 38.949313 -77.454847 180 326ft 0kts
30-Jan-17 13:23 38.949313 -77.454847 180 326ft 0kts
30-Jan-17 13:24 38.949313 -77.454847 180 326ft 0kts
30-Jan-17 13:25 38.949313 -77.454847 180 326ft 0kts
30-Jan-17 13:26 38.949313 -77.454847 180 326ft 0kts
30-Jan-17 13:27 38.949313 -77.454847 180 326ft 0kts
30-Jan-17 13:28 38.949313 -77.454847 180 326ft 0kts
30-Jan-17 13:29 38.949313 -77.454847 180 326ft 0kts
30-Jan-17 13:30 38.949313 -77.454847 180 326ft 0kts
30-Jan-17 13:31 38.949313 -77.454847 180 326ft 0kts
30-Jan-17 13:32 38.949313 -77.454847 180 326ft 0kts
30-Jan-17 13:33 38.949313 -77.454847 180 326ft 0kts
30-Jan-17 13:34 38.949313 -77.454847 180 326ft 0kts
30-Jan-17 13:35 38.949313 -77.454847 180 326ft 0kts
30-Jan-17 13:36 38.949313 -77.454847 180 326ft 0kts
30-Jan-17 13:37 38.949313 -77.454847 180 326ft 0kts
30-Jan-17 13:38 38.949313 -77.454847 180 326ft 0kts
30-Jan-17 13:39 38.949313 -77.454847 180 326ft 0kts
30-Jan-17 13:40 38.949313 -77.454847 180 326ft 0kts
30-Jan-17 13:41 38.949313 -77.454847 180 326ft 0kts
30-Jan-17 13:42 38.949908 -77.454795 190 326ft 2kts
30-Jan-17 13:43 38.950283 -77.454509 270 326ft 0kts
30-Jan-17 13:44 38.950283 -77.454509 270 326ft 0kts
30-Jan-17 13:45 38.950283 -77.454509 269 326ft 0kts
30-Jan-17 13:46 38.950283 -77.454510 269 326ft 0kts
30-Jan-17 13:47 38.950283 -77.454510 269 326ft 0kts
30-Jan-17 13:48 38.950693 -77.455908 359 326ft 13kts
30-Jan-17 13:49 38.957224 -77.455985 0 326ft 31kts
30-Jan-17 13:50 38.967314 -77.455829 0 326ft 41kts
30-Jan-17 13:51 38.969789 -77.459144 211 326ft 16kts
30-Jan-17 13:52 38.965386 -77.459351 181 326ft 51kts
30-Jan-17 13:53 38.928217 -77.467491 206 2148ft 160kts
30-Jan-17 13:54 38.876530 -77.490445 193 3498ft 239kts
30-Jan-17 13:55 38.804143 -77.501177 195 5894ft 273kts
30-Jan-17 13:56 38.726511 -77.513644 194 8624ft 288kts
30-Jan-17 13:57 38.644398 -77.526858 193 10821ft 316kts
30-Jan-17 13:58 38.549172 -77.542082 191 12184ft 362kts
30-Jan-17 13:59 38.448973 -77.557963 192 14487ft 368kts
30-Jan-17 14:00 38.355135 -77.600832 219 16509ft 358kts
30-Jan-17 14:01 38.274346 -77.677094 224 18293ft 364kts
30-Jan-17 14:02 38.196834 -77.760335 225 20116ft 365kts
30-Jan-17 14:03 38.118835 -77.843677 226 21843ft 366kts
30-Jan-17 14:04 38.040980 -77.926679 226 23417ft 366kts
30-Jan-17 14:05 37.963103 -78.009448 226 24834ft 367kts
30-Jan-17 14:06 37.884591 -78.092679 227 26119ft 369kts
30-Jan-17 14:07 37.805660 -78.176065 227 27313ft 370kts
30-Jan-17 14:08 37.725924 -78.260096 227 28322ft 374kts
30-Jan-17 14:09 37.646218 -78.343754 228 29710ft 366kts
30-Jan-17 14:10 37.568687 -78.425048 228 30821ft 363kts
30-Jan-17 14:11 37.490880 -78.506326 228 31805ft 362kts
30-Jan-17 14:12 37.413230 -78.586802 229 32717ft 361kts
30-Jan-17 14:13 37.335483 -78.666925 229 33473ft 362kts
30-Jan-17 14:14 37.257723 -78.746813 229 33932ft 360kts
30-Jan-17 14:15 37.180397 -78.826111 229 33922ft 361kts
30-Jan-17 14:16 37.102667 -78.905554 229 33922ft 361kts
30-Jan-17 14:17 37.024532 -78.985205 229 33923ft 361kts
30-Jan-17 14:18 36.946697 -79.064327 229 33932ft 361kts
30-Jan-17 14:19 36.868922 -79.144275 230 33952ft 361kts
30-Jan-17 14:20 36.791618 -79.223378 230 34011ft 360kts
30-Jan-17 14:21 36.713770 -79.302853 230 33996ft 361kts
30-Jan-17 14:22 36.636168 -79.381899 230 33974ft 361kts
30-Jan-17 14:23 36.558559 -79.460654 231 33984ft 360kts
30-Jan-17 14:24 36.480745 -79.539505 231 33947ft 360kts
30-Jan-17 14:25 36.403055 -79.617984 231 33949ft 361kts
30-Jan-17 14:26 36.325322 -79.696250 232 34026ft 360kts
30-Jan-17 14:27 36.247344 -79.774621 232 34030ft 360kts
30-Jan-17 14:28 36.169997 -79.852089 232 34012ft 358kts
30-Jan-17 14:29 36.092300 -79.929793 232 33936ft 358kts
30-Jan-17 14:30 36.002619 -79.992218 211 33948ft 402kts
30-Jan-17 14:31 35.892587 -80.026010 211 34018ft 403kts
30-Jan-17 14:32 35.784439 -80.062090 211 34068ft 404kts
30-Jan-17 14:33 35.675855 -80.097396 211 34086ft 404kts
30-Jan-17 14:34 35.567218 -80.132752 211 34091ft 404kts
30-Jan-17 14:35 35.476291 -80.162308 210 34088ft 405kts
30-Jan-17 14:36 35.367399 -80.197557 210 34075ft 405kts
30-Jan-17 14:37 35.258237 -80.232825 210 34063ft 406kts
30-Jan-17 14:38 35.149193 -80.267901 210 34063ft 407kts
30-Jan-17 14:39 35.021466 -80.308945 209 34106ft 406kts
30-Jan-17 14:40 34.911628 -80.344069 209 34097ft 407kts
30-Jan-17 14:41 34.802084 -80.379051 209 34110ft 407kts
30-Jan-17 14:42 34.710915 -80.408093 209 34105ft 406kts
30-Jan-17 14:43 34.601410 -80.442870 208 34029ft 407kts
30-Jan-17 14:44 34.491595 -80.477640 208 34057ft 406kts
30-Jan-17 14:45 34.382592 -80.512100 208 34054ft 406kts
30-Jan-17 14:46 34.272840 -80.546695 208 34058ft 407kts
30-Jan-17 14:47 34.163212 -80.581124 208 34098ft 407kts
30-Jan-17 14:48 34.053716 -80.615412 208 34139ft 407kts
30-Jan-17 14:49 33.943687 -80.649790 207 34146ft 407kts
30-Jan-17 14:50 33.833972 -80.684025 207 34149ft 408kts
30-Jan-17 14:51 33.724561 -80.718023 207 34138ft 408kts
30-Jan-17 14:52 33.614176 -80.752266 207 34076ft 409kts
30-Jan-17 14:53 33.503481 -80.786482 207 34111ft 410kts
30-Jan-17 14:54 33.393471 -80.820411 207 34175ft 410kts
30-Jan-17 14:55 33.282426 -80.854561 207 34177ft 411kts
30-Jan-17 14:56 33.171644 -80.888546 207 34186ft 411kts
30-Jan-17 14:57 33.060994 -80.922391 207 34158ft 411kts
30-Jan-17 14:58 32.949997 -80.956297 207 34105ft 413kts
30-Jan-17 14:59 32.838391 -80.990264 207 34108ft 413kts
30-Jan-17 15:00 32.727084 -81.024066 207 34110ft 414kts
30-Jan-17 15:01 32.615669 -81.057793 207 34162ft 414kts
30-Jan-17 15:02 32.504123 -81.091482 207 34205ft 414kts
30-Jan-17 15:03 32.392457 -81.125127 207 34209ft 415kts
30-Jan-17 15:04 32.280312 -81.158830 207 34209ft 415kts
30-Jan-17 15:05 32.168692 -81.192150 206 34205ft 416kts
30-Jan-17 15:06 32.047917 -81.196297 190 34130ft 445kts
30-Jan-17 15:07 31.924721 -81.192128 191 34112ft 443kts
30-Jan-17 15:08 31.800823 -81.188130 191 34179ft 444kts
30-Jan-17 15:09 31.677380 -81.184455 191 34214ft 444kts
30-Jan-17 15:10 31.553859 -81.180578 191 34223ft 444kts
30-Jan-17 15:11 31.430075 -81.176801 191 34208ft 444kts
30-Jan-17 15:12 31.306588 -81.172922 190 34173ft 445kts
30-Jan-17 15:13 31.182959 -81.169247 190 34155ft 445kts
30-Jan-17 15:14 31.059310 -81.165231 190 34146ft 445kts
30-Jan-17 15:15 30.935156 -81.161525 190 34147ft 445kts
30-Jan-17 15:16 30.811404 -81.157811 190 34154ft 446kts
30-Jan-17 15:17 30.687489 -81.154034 190 34188ft 446kts
30-Jan-17 15:18 30.563598 -81.150297 190 34216ft 446kts
30-Jan-17 15:19 30.439585 -81.146636 190 34242ft 446kts
30-Jan-17 15:20 30.315073 -81.142793 190 34244ft 447kts
30-Jan-17 15:21 30.190911 -81.139231 190 34250ft 446kts
30-Jan-17 15:22 30.066766 -81.135553 190 34247ft 447kts
30-Jan-17 15:23 29.942302 -81.131803 189 34226ft 447kts
30-Jan-17 15:24 29.817806 -81.128095 189 34163ft 448kts
30-Jan-17 15:25 29.692968 -81.124376 189 34153ft 448kts
30-Jan-17 15:26 29.568399 -81.120603 189 34144ft 448kts
30-Jan-17 15:27 29.444203 -81.116995 189 34139ft 449kts
30-Jan-17 15:28 29.319451 -81.112574 185 34157ft 454kts
30-Jan-17 15:29 29.193697 -81.069097 169 34125ft 479kts
30-Jan-17 15:30 29.068551 -81.018657 170 34197ft 476kts
30-Jan-17 15:31 28.943274 -80.968241 170 34201ft 477kts
30-Jan-17 15:32 28.818115 -80.918286 170 34201ft 477kts
30-Jan-17 15:33 28.692674 -80.868264 170 34194ft 477kts
30-Jan-17 15:34 28.567226 -80.818392 169 34171ft 477kts
30-Jan-17 15:35 28.442073 -80.768570 169 34157ft 477kts
30-Jan-17 15:36 28.317120 -80.719165 169 34105ft 476kts
30-Jan-17 15:37 28.193321 -80.670110 169 34110ft 469kts
30-Jan-17 15:38 28.067924 -80.622646 171 34153ft 475kts
30-Jan-17 15:39 27.941693 -80.579543 171 34162ft 474kts
30-Jan-17 15:40 27.816113 -80.536694 171 34163ft 474kts
30-Jan-17 15:41 27.689992 -80.493888 171 34170ft 474kts
30-Jan-17 15:42 27.564725 -80.443493 168 34188ft 477kts
30-Jan-17 15:43 27.439902 -80.392797 168 34177ft 477kts
30-Jan-17 15:44 27.314790 -80.341963 168 34184ft 477kts
30-Jan-17 15:45 27.190185 -80.291628 167 34183ft 476kts
30-Jan-17 15:46 27.066215 -80.241812 167 31096ft 484kts
30-Jan-17 15:47 26.937155 -80.189488 166 27348ft 487kts
30-Jan-17 15:48 26.812114 -80.139539 166 24405ft 464kts
30-Jan-17 15:49 26.696408 -80.093000 166 21684ft 424kts
30-Jan-17 15:50 26.583566 -80.070084 178 19113ft 413kts
30-Jan-17 15:51 26.472102 -80.050689 176 16774ft 386kts
30-Jan-17 15:52 26.367950 -80.032888 175 14161ft 372kts
30-Jan-17 15:53 26.266283 -80.015485 176 11881ft 370kts
30-Jan-17 15:54 26.170760 -80.036145 198 10218ft 323kts
30-Jan-17 15:55 26.088900 -80.059594 196 8414ft 294kts
30-Jan-17 15:56 26.011344 -80.081351 196 6337ft 281kts
30-Jan-17 15:57 25.937979 -80.102084 196 4229ft 271kts
30-Jan-17 15:58 25.865553 -80.122374 196 2977ft 268kts
30-Jan-17 15:59 25.796413 -80.137041 177 2965ft 229kts
30-Jan-17 16:00 25.737734 -80.133924 188 2981ft 184kts
30-Jan-17 16:01 25.731892 -80.171902 302 2991ft 155kts
30-Jan-17 16:02 25.753072 -80.211996 299 1920ft 138kts
30-Jan-17 16:03 25.771851 -80.248686 299 962ft 138kts
30-Jan-17 16:04 25.790754 -80.285438 300 38ft 135kts
30-Jan-17 16:05 25.797793 -80.299281 301 22ft 0kts
30-Jan-17 16:06 25.797793 -80.299281 301 22ft 0kts
30-Jan-17 16:07 25.797793 -80.299281 301 22ft 0kts

Navigation Log

Ident Type
Flight plan parsing failed, navigation log unavailable